Terminal Aerodrome Forecast
Issued by NWS Tuscon, AZ

Home | Current Version | Previous Version | Text Only | Print | Product List | Glossary On
Versions: 1 2 3 4 5 6 7 8 9 10 11 12 13 14 15 16 17
000
FTUS45 KTWC 222300
TAFTUS
TAF
KTUS 222327Z 2300/2324 26009KT P6SM VCSH SCT080
     FM230200 20005KT P6SM SCT090
     FM230800 15005KT P6SM SKC
     FM232000 28008KT P6SM SCT090 SCT250=

USA.gov is the U.S. government's official web portal to all federal, state and local government web resources and services.